< < Back
Terminal Aerodrome Forecast


Current Version              Previous Versions:   1  2  3  4  5  6  7  8  9  

Terminal Aerodrome Forecast

365
FTUS42 KFFC 302320
TAFAHN
TAF
KAHN 302320Z 3100/3124 29006KT P6SM FEW050
     FM310200 VRB03KT P6SM SKC
     FM311400 23005KT P6SM SCT035
     FM311800 25008KT P6SM BKN040 PROB30 3122/3124 -TSRA BKN040CB=



Latest METAR

649
SAUS70 KWBC 310400 RRS
MTRAHN
METAR KAHN 310451Z AUTO 00000KT 10SM CLR 12/05 A3010 RMK AO2 SLP191
T01220050 402220067


USA.gov is the U.S. government's official web portal to all federal, state and local government web resources and services.